createdAt,value
2018-07-21T00:02:07.704Z,29.30
2018-07-21T00:04:35.422Z,29.30
2018-07-21T00:07:03.453Z,29.40
2018-07-21T00:09:31.119Z,29.30
2018-07-21T00:11:58.760Z,29.20
2018-07-21T00:14:26.441Z,29.20
2018-07-21T00:16:54.131Z,29.10
2018-07-21T00:19:21.827Z,29.00
2018-07-21T00:21:49.516Z,29.10
2018-07-21T00:24:17.157Z,29.10
2018-07-21T00:26:48.159Z,29.00
2018-07-21T00:29:16.966Z,29.00
2018-07-21T00:31:44.686Z,28.90
2018-07-21T00:36:40.198Z,28.80
2018-07-21T00:39:10.698Z,28.80
2018-07-21T00:41:38.421Z,28.60
2018-07-21T00:44:06.423Z,28.70
2018-07-21T00:46:34.334Z,28.90
2018-07-21T00:49:02.020Z,29.00
2018-07-21T00:51:29.689Z,29.00
2018-07-21T00:53:57.367Z,29.10
2018-07-21T00:56:25.085Z,29.00
2018-07-21T00:58:52.779Z,29.00
2018-07-21T01:01:20.471Z,28.90
2018-07-21T01:03:48.156Z,29.00
2018-07-21T01:06:15.859Z,28.90
2018-07-21T01:08:43.565Z,28.90
2018-07-21T01:11:11.370Z,28.60
2018-07-21T01:13:39.248Z,28.60
2018-07-21T01:16:07.537Z,28.70
2018-07-21T01:18:35.257Z,28.80
2018-07-21T01:21:02.938Z,28.80
2018-07-21T01:23:30.655Z,28.90
2018-07-21T01:25:58.345Z,28.90
2018-07-21T01:28:26.122Z,28.90
2018-07-21T01:30:53.798Z,28.90
2018-07-21T01:33:21.498Z,28.80
2018-07-21T01:35:49.158Z,28.60
2018-07-21T01:38:16.841Z,28.70
2018-07-21T01:40:44.504Z,28.80
2018-07-21T01:43:12.204Z,28.70
2018-07-21T01:45:39.882Z,28.80
2018-07-21T01:48:07.627Z,28.90
2018-07-21T01:50:35.485Z,29.00
2018-07-21T01:53:03.191Z,29.00
2018-07-21T01:55:30.862Z,28.90
2018-07-21T01:57:58.579Z,29.00
2018-07-21T02:00:26.357Z,29.10
2018-07-21T02:02:54.341Z,29.00
2018-07-21T02:05:22.078Z,28.80
2018-07-21T02:07:49.815Z,28.60
2018-07-21T02:10:17.525Z,28.50
2018-07-21T02:12:45.230Z,28.40
2018-07-21T02:15:12.898Z,28.40
2018-07-21T02:17:40.593Z,28.20
2018-07-21T02:20:08.337Z,28.20
2018-07-21T02:22:36.088Z,28.10
2018-07-21T02:25:03.804Z,27.90
2018-07-21T02:29:59.408Z,27.90
2018-07-21T02:32:27.104Z,27.80
2018-07-21T02:37:22.507Z,27.80
2018-07-21T02:39:50.386Z,27.80
2018-07-21T02:42:18.083Z,27.80
2018-07-21T02:47:13.494Z,27.40
2018-07-21T02:49:41.222Z,27.20
2018-07-21T02:52:08.936Z,27.10
2018-07-21T02:54:36.613Z,27.00
2018-07-21T02:57:04.358Z,26.80
2018-07-21T02:59:32.031Z,26.80
2018-07-21T03:01:59.684Z,26.80
2018-07-21T03:04:27.382Z,26.90
2018-07-21T03:06:55.063Z,26.90
2018-07-21T03:09:22.746Z,26.90
2018-07-21T03:11:50.425Z,26.80
2018-07-21T03:14:18.163Z,26.80
2018-07-21T03:16:45.849Z,26.30
2018-07-21T03:19:13.541Z,26.30
2018-07-21T03:21:41.231Z,26.30
2018-07-21T03:24:08.930Z,26.20
2018-07-21T03:26:36.603Z,29.00
2018-07-21T03:29:04.361Z,26.30
2018-07-21T03:31:32.057Z,26.30
2018-07-21T03:33:59.738Z,26.30
2018-07-21T03:36:27.458Z,26.20
2018-07-21T03:38:55.122Z,26.20
2018-07-21T03:41:22.882Z,26.20
2018-07-21T03:43:50.602Z,26.10
2018-07-21T03:46:18.292Z,26.10
2018-07-21T03:48:45.964Z,26.00
2018-07-21T03:51:13.619Z,25.80
2018-07-21T03:53:41.707Z,25.80
2018-07-21T03:56:09.405Z,25.90
2018-07-21T03:58:37.066Z,25.90
2018-07-21T04:01:05.062Z,25.90
2018-07-21T04:03:32.734Z,26.00
2018-07-21T04:06:00.426Z,25.80
2018-07-21T04:08:28.125Z,26.00
2018-07-21T04:10:55.782Z,25.90
2018-07-21T04:13:23.421Z,25.80
2018-07-21T04:15:51.082Z,25.80
2018-07-21T04:18:18.300Z,25.70
2018-07-21T04:20:45.970Z,25.50
2018-07-21T04:23:13.613Z,25.30
2018-07-21T04:25:41.261Z,25.10
2018-07-21T04:28:08.921Z,25.20
2018-07-21T04:30:36.590Z,25.10
2018-07-21T04:33:04.371Z,25.00
2018-07-21T04:35:32.050Z,25.00
2018-07-21T04:37:59.846Z,25.00
2018-07-21T04:40:27.522Z,25.10
2018-07-21T04:42:55.201Z,25.00
2018-07-21T04:45:22.876Z,25.00
2018-07-21T04:47:50.576Z,25.10
2018-07-21T04:50:18.250Z,25.20
2018-07-21T04:52:46.211Z,25.30
2018-07-21T04:55:13.867Z,25.40
2018-07-21T04:57:41.855Z,25.40
2018-07-21T05:00:09.593Z,25.50
2018-07-21T05:02:37.257Z,25.50
2018-07-21T05:05:05.023Z,25.50
2018-07-21T05:07:32.786Z,25.50
2018-07-21T05:10:00.438Z,25.50
2018-07-21T05:12:28.110Z,25.60
2018-07-21T05:14:55.799Z,25.60
2018-07-21T05:17:23.526Z,25.60
2018-07-21T05:19:51.306Z,25.50
2018-07-21T05:22:18.953Z,25.40
2018-07-21T05:24:46.735Z,25.40
2018-07-21T05:27:14.494Z,25.20
2018-07-21T05:32:10.438Z,25.80
2018-07-21T05:34:38.113Z,25.90
2018-07-21T05:37:05.906Z,25.90
2018-07-21T05:39:33.573Z,25.90
2018-07-21T05:42:01.271Z,25.90
2018-07-21T05:44:28.998Z,25.60
2018-07-21T05:46:56.722Z,25.80
2018-07-21T05:49:24.418Z,25.70
2018-07-21T05:51:52.126Z,25.70
2018-07-21T05:54:19.787Z,25.60
2018-07-21T05:56:47.498Z,25.30
2018-07-21T05:59:15.359Z,25.40
2018-07-21T06:01:43.177Z,25.50
2018-07-21T06:04:10.906Z,25.50
2018-07-21T06:06:38.603Z,25.50
2018-07-21T06:09:08.265Z,25.50
2018-07-21T06:11:35.989Z,25.40
2018-07-21T06:14:03.809Z,25.30
2018-07-21T06:16:31.576Z,25.00
2018-07-21T06:18:59.287Z,25.20
2018-07-21T06:21:27.001Z,25.20
2018-07-21T06:23:54.744Z,25.40
2018-07-21T06:26:22.417Z,25.60
2018-07-21T06:28:50.146Z,25.60
2018-07-21T06:31:17.876Z,25.90
2018-07-21T06:33:45.528Z,25.50
2018-07-21T06:36:13.202Z,25.60
2018-07-21T06:38:40.943Z,25.80
2018-07-21T06:41:08.950Z,25.80
2018-07-21T06:43:36.691Z,25.90
2018-07-21T06:46:04.825Z,26.10
2018-07-21T06:48:32.522Z,26.20
2018-07-21T06:51:00.259Z,26.60
2018-07-21T06:53:27.926Z,26.90
2018-07-21T06:55:55.601Z,27.00
2018-07-21T06:58:23.295Z,27.10
2018-07-21T07:00:51.012Z,27.20
2018-07-21T07:03:18.722Z,27.40
2018-07-21T07:08:14.131Z,27.70
2018-07-21T07:10:41.837Z,27.80
2018-07-21T07:13:09.520Z,28.10
2018-07-21T07:15:37.322Z,28.40
2018-07-21T07:18:05.049Z,28.40
2018-07-21T07:20:32.705Z,28.40
2018-07-21T07:23:00.370Z,28.50
2018-07-21T07:25:28.060Z,28.80
2018-07-21T07:27:55.929Z,28.90
2018-07-21T07:30:23.635Z,29.00
2018-07-21T07:32:51.330Z,28.80
2018-07-21T07:37:46.933Z,29.20
2018-07-21T07:40:14.666Z,29.20
2018-07-21T07:42:42.331Z,29.10
2018-07-21T07:45:10.039Z,29.20
2018-07-21T07:47:37.685Z,29.70
2018-07-21T07:50:05.552Z,30.30
2018-07-21T07:52:33.222Z,30.90
2018-07-21T07:55:00.890Z,31.40
2018-07-21T07:57:28.605Z,31.70
2018-07-21T07:59:56.298Z,32.00
2018-07-21T08:02:24.026Z,32.40
2018-07-21T08:04:51.679Z,32.30
2018-07-21T08:07:19.378Z,32.50
2018-07-21T08:09:47.044Z,32.70
2018-07-21T08:12:14.764Z,33.20
2018-07-21T08:14:42.498Z,33.20
2018-07-21T08:17:10.198Z,33.60
2018-07-21T08:19:37.879Z,33.70
2018-07-21T08:22:05.565Z,34.00
2018-07-21T08:24:33.267Z,34.00
2018-07-21T08:29:28.661Z,34.30
2018-07-21T08:31:56.306Z,34.10
2018-07-21T08:34:24.224Z,34.10
2018-07-21T08:36:51.889Z,34.20
2018-07-21T08:39:19.553Z,34.20
2018-07-21T08:41:47.213Z,34.70
2018-07-21T08:46:42.643Z,35.40
2018-07-21T08:49:10.343Z,35.40
2018-07-21T08:51:38.031Z,35.30
2018-07-21T08:54:05.750Z,35.50
2018-07-21T08:56:33.469Z,35.80
2018-07-21T08:59:01.353Z,38.00
2018-07-21T09:01:29.023Z,36.40
2018-07-21T09:03:56.679Z,36.60
2018-07-21T09:06:24.354Z,36.60
2018-07-21T09:08:52.043Z,36.60
2018-07-21T09:11:20.458Z,36.50
2018-07-21T09:13:48.220Z,36.30
2018-07-21T09:16:15.926Z,36.60
2018-07-21T09:18:43.636Z,36.80
2018-07-21T09:21:11.371Z,36.80
2018-07-21T09:23:39.050Z,37.00
2018-07-21T09:26:06.750Z,37.00
2018-07-21T09:28:34.411Z,37.10
2018-07-21T09:31:02.102Z,37.20
2018-07-21T09:35:57.727Z,37.30
2018-07-21T09:38:25.385Z,37.20
2018-07-21T09:40:53.033Z,36.80
2018-07-21T09:43:20.729Z,36.80
2018-07-21T09:45:48.394Z,37.10
2018-07-21T09:48:16.108Z,37.30
2018-07-21T09:50:43.791Z,37.20
2018-07-21T09:53:11.673Z,37.50
2018-07-21T09:55:39.365Z,37.80
2018-07-21T09:58:07.036Z,38.00
2018-07-21T10:00:40.334Z,38.10
2018-07-21T10:03:08.067Z,38.00
2018-07-21T10:05:35.751Z,38.10
2018-07-21T10:08:03.429Z,37.60
2018-07-21T10:10:31.159Z,37.20
2018-07-21T10:12:58.827Z,37.70
2018-07-21T10:15:26.507Z,38.20
2018-07-21T10:17:54.201Z,38.60
2018-07-21T10:20:21.853Z,38.90
2018-07-21T10:22:49.554Z,38.30
2018-07-21T10:25:22.836Z,38.70
2018-07-21T10:27:56.474Z,39.20
2018-07-21T10:30:24.154Z,39.60
2018-07-21T10:32:51.798Z,40.00
2018-07-21T10:35:19.466Z,40.20
2018-07-21T10:37:47.206Z,40.30
2018-07-21T10:42:42.698Z,40.60
2018-07-21T10:45:10.783Z,40.60
2018-07-21T10:47:38.586Z,40.40
2018-07-21T10:50:06.261Z,40.60
2018-07-21T10:52:33.917Z,40.60
2018-07-21T10:55:01.677Z,40.50
2018-07-21T10:57:29.345Z,40.60
2018-07-21T10:59:57.276Z,40.70
2018-07-21T11:02:25.027Z,41.20
2018-07-21T11:04:52.750Z,40.80
2018-07-21T11:09:48.458Z,40.70
2018-07-21T11:12:16.257Z,40.80
2018-07-21T11:14:43.937Z,40.60
2018-07-21T11:17:11.622Z,40.50
2018-07-21T11:19:39.611Z,40.80
2018-07-21T11:22:07.339Z,41.20
2018-07-21T11:24:34.990Z,41.20
2018-07-21T11:27:02.632Z,40.80
2018-07-21T11:29:30.378Z,40.90
2018-07-21T11:31:58.102Z,41.20
2018-07-21T11:34:25.845Z,41.30
2018-07-21T11:36:53.612Z,41.20
2018-07-21T11:39:21.338Z,40.90
2018-07-21T11:41:49.120Z,41.00
2018-07-21T11:44:17.043Z,40.90
2018-07-21T11:46:44.887Z,41.00
2018-07-21T11:49:12.811Z,41.00
2018-07-21T11:51:40.518Z,39.80
2018-07-21T11:54:08.297Z,39.20
2018-07-21T11:56:36.057Z,39.10
2018-07-21T11:59:03.815Z,39.90
2018-07-21T12:01:31.508Z,40.50
2018-07-21T12:03:59.269Z,40.40
2018-07-21T12:06:26.966Z,40.10
2018-07-21T12:08:54.628Z,39.40
2018-07-21T12:11:22.278Z,39.80
2018-07-21T12:13:50.038Z,40.40
2018-07-21T12:16:18.026Z,40.10
2018-07-21T12:18:45.697Z,39.60
2018-07-21T12:21:14.469Z,39.70
2018-07-21T12:23:42.142Z,40.10
2018-07-21T12:26:09.812Z,39.80
2018-07-21T12:28:37.472Z,39.60
2018-07-21T12:31:05.249Z,40.20
2018-07-21T12:33:32.960Z,40.00
2018-07-21T12:36:00.613Z,39.80
2018-07-21T12:38:28.263Z,40.50
2018-07-21T12:40:55.966Z,41.30
2018-07-21T12:43:23.693Z,41.50
2018-07-21T12:45:51.403Z,41.70
2018-07-21T12:48:19.158Z,42.00
2018-07-21T12:50:47.094Z,42.20
2018-07-21T12:53:14.909Z,42.30
2018-07-21T12:55:42.599Z,42.40
2018-07-21T12:58:10.300Z,42.20
2018-07-21T13:00:37.979Z,42.20
2018-07-21T13:03:05.661Z,42.10
2018-07-21T13:05:33.338Z,42.50
2018-07-21T13:08:01.033Z,42.70
2018-07-21T13:10:28.846Z,42.20
2018-07-21T13:12:56.532Z,42.20
2018-07-21T13:15:24.206Z,42.20
2018-07-21T13:17:51.861Z,42.30
2018-07-21T13:20:19.589Z,42.50
2018-07-21T13:22:47.289Z,41.60
2018-07-21T13:25:15.011Z,42.20
2018-07-21T13:27:42.662Z,40.50
2018-07-21T13:30:10.321Z,40.10
2018-07-21T13:32:38.015Z,40.40
2018-07-21T13:35:06.479Z,40.70
2018-07-21T13:37:34.134Z,40.60
2018-07-21T13:40:01.796Z,40.70
2018-07-21T13:42:29.486Z,41.00
2018-07-21T13:44:57.157Z,40.50
2018-07-21T13:47:25.612Z,40.80
2018-07-21T13:49:53.283Z,41.20
2018-07-21T13:52:20.971Z,42.00
2018-07-21T13:54:48.950Z,42.30
2018-07-21T13:57:16.731Z,42.70
2018-07-21T13:59:44.396Z,42.60
2018-07-21T14:02:12.065Z,42.80
2018-07-21T14:04:39.710Z,42.60
2018-07-21T14:07:07.472Z,42.60
2018-07-21T14:12:02.912Z,42.70
2018-07-21T14:14:30.682Z,42.60
2018-07-21T14:16:58.400Z,42.70
2018-07-21T14:19:26.231Z,43.20
2018-07-21T14:21:54.490Z,43.60
2018-07-21T14:24:22.272Z,44.00
2018-07-21T14:26:49.949Z,44.10
2018-07-21T14:29:17.830Z,44.00
2018-07-21T14:31:45.502Z,43.00
2018-07-21T14:34:13.239Z,43.10
2018-07-21T14:36:40.877Z,43.30
2018-07-21T14:39:09.639Z,43.40
2018-07-21T14:41:37.732Z,43.20
2018-07-21T14:44:05.410Z,43.10
2018-07-21T14:46:33.096Z,43.10
2018-07-21T14:49:00.824Z,42.90
2018-07-21T14:51:28.493Z,43.40
2018-07-21T14:53:56.668Z,43.80
2018-07-21T14:56:24.604Z,44.00
2018-07-21T14:58:52.339Z,43.90
2018-07-21T15:01:20.057Z,44.10
2018-07-21T15:03:47.699Z,44.00
2018-07-21T15:06:15.383Z,43.90
2018-07-21T15:08:43.066Z,43.80
2018-07-21T15:11:10.786Z,43.80
2018-07-21T15:13:38.466Z,43.70
2018-07-21T15:18:33.958Z,44.00
2018-07-21T15:21:01.942Z,43.50
2018-07-21T15:23:29.611Z,43.30
2018-07-21T15:25:57.295Z,43.80
2018-07-21T15:28:24.945Z,43.70
2018-07-21T15:30:52.626Z,44.00
2018-07-21T15:33:21.015Z,44.30
2018-07-21T15:35:48.843Z,44.50
2018-07-21T15:38:16.931Z,44.00
2018-07-21T15:40:45.110Z,44.40
2018-07-21T15:43:12.801Z,44.60
2018-07-21T15:45:41.279Z,44.10
2018-07-21T15:48:09.009Z,43.70
2018-07-21T15:50:36.699Z,43.20
2018-07-21T15:53:04.467Z,43.30
2018-07-21T15:55:32.148Z,43.00
2018-07-21T15:57:59.797Z,43.50
2018-07-21T16:00:27.496Z,42.70
2018-07-21T16:02:55.170Z,42.90
2018-07-21T16:05:23.005Z,43.20
2018-07-21T16:07:50.708Z,43.20
2018-07-21T16:10:18.394Z,43.60
2018-07-21T16:12:46.065Z,43.70
2018-07-21T16:15:13.761Z,43.50
2018-07-21T16:17:41.381Z,43.60
2018-07-21T16:20:09.046Z,44.00
2018-07-21T16:22:36.745Z,44.20
2018-07-21T16:25:04.517Z,44.50
2018-07-21T16:27:32.218Z,44.70
2018-07-21T16:29:59.876Z,44.70
2018-07-21T16:32:27.580Z,44.80
2018-07-21T16:34:55.287Z,44.70
2018-07-21T16:37:23.047Z,44.40
2018-07-21T16:39:50.802Z,44.30
2018-07-21T16:42:18.538Z,44.30
2018-07-21T16:44:46.219Z,44.30
2018-07-21T16:47:13.967Z,44.10
2018-07-21T16:49:41.678Z,43.90
2018-07-21T16:52:09.410Z,43.70
2018-07-21T16:54:37.197Z,43.60
2018-07-21T16:57:04.882Z,43.50
2018-07-21T16:59:32.565Z,43.30
2018-07-21T17:02:00.328Z,43.20
2018-07-21T17:04:28.035Z,42.70
2018-07-21T17:06:55.728Z,42.80
2018-07-21T17:11:51.065Z,42.50
2018-07-21T17:14:18.809Z,42.20
2018-07-21T17:16:46.489Z,42.50
2018-07-21T17:19:14.138Z,42.00
2018-07-21T17:21:41.786Z,41.30
2018-07-21T17:24:09.450Z,41.70
2018-07-21T17:26:37.238Z,41.70
2018-07-21T17:29:04.907Z,41.80
2018-07-21T17:31:32.557Z,41.50
2018-07-21T17:34:00.198Z,41.20
2018-07-21T17:36:27.863Z,41.10
2018-07-21T17:38:55.518Z,41.40
2018-07-21T17:41:23.198Z,41.40
2018-07-21T17:43:50.859Z,41.20
2018-07-21T17:46:18.530Z,40.80
2018-07-21T17:48:46.217Z,40.60
2018-07-21T17:51:13.931Z,40.40
2018-07-21T17:53:41.597Z,40.40
2018-07-21T17:56:09.250Z,40.30
2018-07-21T17:58:36.914Z,40.10
2018-07-21T18:01:04.597Z,39.90
2018-07-21T18:03:32.248Z,40.00
2018-07-21T18:05:59.915Z,39.40
2018-07-21T18:08:27.643Z,39.30
2018-07-21T18:10:55.325Z,39.10
2018-07-21T18:13:23.020Z,39.00
2018-07-21T18:15:50.678Z,38.90
2018-07-21T18:18:18.377Z,38.90
2018-07-21T18:20:46.099Z,38.60
2018-07-21T18:23:13.783Z,38.60
2018-07-21T18:25:41.499Z,38.50
2018-07-21T18:28:09.138Z,38.30
2018-07-21T18:30:36.792Z,38.20
2018-07-21T18:33:04.834Z,38.00
2018-07-21T18:35:32.475Z,38.00
2018-07-21T18:38:00.326Z,37.80
2018-07-21T18:40:28.010Z,37.60
2018-07-21T18:42:55.698Z,37.30
2018-07-21T18:45:23.404Z,37.20
2018-07-21T18:47:51.109Z,37.00
2018-07-21T18:50:18.798Z,36.80
2018-07-21T18:52:46.492Z,36.50
2018-07-21T18:55:14.239Z,36.90
2018-07-21T18:57:41.918Z,36.10
2018-07-21T19:00:09.606Z,36.00
2018-07-21T19:02:37.290Z,35.90
2018-07-21T19:05:05.233Z,35.70
2018-07-21T19:07:32.896Z,35.60
2018-07-21T19:10:00.560Z,35.40
2018-07-21T19:12:34.007Z,35.30
2018-07-21T19:15:01.687Z,35.10
2018-07-21T19:17:29.327Z,34.80
2018-07-21T19:20:02.642Z,34.50
2018-07-21T19:22:30.334Z,34.30
2018-07-21T19:25:00.381Z,34.00
2018-07-21T19:27:30.194Z,33.80
2018-07-21T19:29:57.854Z,33.50
2018-07-21T19:32:31.220Z,33.60
2018-07-21T19:34:58.925Z,33.30
2018-07-21T19:37:32.370Z,33.30
2018-07-21T19:40:00.056Z,33.40
2018-07-21T19:42:27.678Z,32.90
2018-07-21T19:44:55.368Z,32.80
2018-07-21T19:47:23.155Z,32.30
2018-07-21T19:49:50.850Z,32.40
2018-07-21T19:52:18.520Z,32.10
2018-07-21T19:54:46.366Z,32.00
2018-07-21T19:57:14.058Z,31.70
2018-07-21T19:59:41.718Z,31.80
2018-07-21T20:02:09.390Z,31.70
2018-07-21T20:04:37.098Z,31.50
2018-07-21T20:07:04.795Z,31.60
2018-07-21T20:09:32.819Z,31.60
2018-07-21T20:12:00.507Z,31.60
2018-07-21T20:16:55.918Z,31.40
2018-07-21T20:19:23.634Z,31.40
2018-07-21T20:21:51.360Z,31.40
2018-07-21T20:24:19.059Z,31.30
2018-07-21T20:26:46.713Z,31.30
2018-07-21T20:29:14.386Z,31.10
2018-07-21T20:31:42.072Z,31.10
2018-07-21T20:34:09.727Z,31.00
2018-07-21T20:36:37.394Z,30.90
2018-07-21T20:39:07.707Z,30.80
2018-07-21T20:41:35.406Z,30.90
2018-07-21T20:44:03.128Z,30.60
2018-07-21T20:46:30.779Z,30.50
2018-07-21T20:48:58.439Z,30.40
2018-07-21T20:51:26.153Z,30.30
2018-07-21T20:53:53.813Z,30.20
2018-07-21T20:56:21.535Z,30.20
2018-07-21T20:58:49.219Z,30.10
2018-07-21T21:01:16.963Z,30.10
2018-07-21T21:03:44.628Z,30.20
2018-07-21T21:06:12.415Z,30.20
2018-07-21T21:08:40.076Z,30.20
2018-07-21T21:11:07.751Z,30.10
2018-07-21T21:13:35.424Z,29.90
2018-07-21T21:16:03.090Z,29.80
2018-07-21T21:18:30.761Z,29.70
2018-07-21T21:20:58.431Z,29.70
2018-07-21T21:23:26.138Z,29.60
2018-07-21T21:25:53.801Z,29.50
2018-07-21T21:28:21.482Z,29.40
2018-07-21T21:30:49.245Z,29.40
2018-07-21T21:33:16.929Z,29.40
2018-07-21T21:35:44.586Z,29.30
2018-07-21T21:38:12.295Z,29.00
2018-07-21T21:40:40.009Z,28.90
2018-07-21T21:43:07.677Z,28.90
2018-07-21T21:45:35.341Z,28.70
2018-07-21T21:48:03.068Z,28.60
2018-07-21T21:50:30.733Z,28.50
2018-07-21T21:52:58.398Z,28.40
2018-07-21T21:55:26.148Z,28.60
2018-07-21T21:57:53.836Z,28.60
2018-07-21T22:02:50.122Z,28.60
2018-07-21T22:05:17.872Z,28.40
2018-07-21T22:07:45.515Z,28.60
2018-07-21T22:10:13.215Z,28.80
2018-07-21T22:12:40.912Z,28.60
2018-07-21T22:15:12.254Z,28.20
2018-07-21T22:17:39.889Z,28.30
2018-07-21T22:20:07.546Z,27.70
2018-07-21T22:22:35.247Z,28.10
2018-07-21T22:25:03.031Z,28.10
2018-07-21T22:27:30.736Z,28.10
2018-07-21T22:29:58.418Z,27.70
2018-07-21T22:32:26.067Z,27.70
2018-07-21T22:34:53.823Z,27.70
2018-07-21T22:37:21.514Z,27.70
2018-07-21T22:39:49.172Z,27.70
2018-07-21T22:42:16.845Z,27.80
2018-07-21T22:44:44.477Z,27.40
2018-07-21T22:47:12.121Z,27.30
2018-07-21T22:49:39.771Z,27.20
2018-07-21T22:52:07.484Z,27.50
2018-07-21T22:54:35.133Z,27.30
2018-07-21T22:57:02.801Z,27.30
2018-07-21T22:59:30.442Z,27.20
2018-07-21T23:04:25.853Z,27.30
2018-07-21T23:06:53.503Z,27.20
2018-07-21T23:09:21.162Z,27.10
2018-07-21T23:11:48.825Z,27.10
2018-07-21T23:14:16.483Z,27.20
2018-07-21T23:16:44.128Z,27.20
2018-07-21T23:19:11.804Z,26.60
2018-07-21T23:21:39.453Z,26.40
2018-07-21T23:24:07.126Z,26.60
2018-07-21T23:26:34.847Z,26.60
2018-07-21T23:29:02.500Z,26.40
2018-07-21T23:31:30.190Z,26.60
2018-07-21T23:33:57.850Z,26.40
2018-07-21T23:36:25.521Z,26.50
2018-07-21T23:38:53.241Z,26.70
2018-07-21T23:41:20.911Z,26.50
2018-07-21T23:43:48.602Z,26.40
2018-07-21T23:46:16.306Z,25.90
2018-07-21T23:48:43.999Z,26.40
2018-07-21T23:51:11.680Z,26.20
2018-07-21T23:53:39.371Z,26.40
2018-07-21T23:56:07.178Z,26.30
2018-07-21T23:58:34.874Z,26.40
